sensor_id;sensor_type;location;lat;lon;timestamp;P1;durP1;ratioP1;P2;durP2;ratioP2
549;SDS011;20066;48.764;9.176;2024-03-23T00:55:10;12.00;;;4.83;;
549;SDS011;20066;48.764;9.176;2024-03-23T00:57:38;7.37;;;4.30;;
549;SDS011;20066;48.764;9.176;2024-03-23T01:00:04;8.00;;;4.17;;
549;SDS011;20066;48.764;9.176;2024-03-23T01:02:32;10.33;;;4.57;;
549;SDS011;20066;48.764;9.176;2024-03-23T01:04:58;5.50;;;3.90;;
549;SDS011;20066;48.764;9.176;2024-03-23T01:07:25;11.17;;;4.27;;
549;SDS011;20066;48.764;9.176;2024-03-23T01:09:51;10.10;;;4.57;;
549;SDS011;20066;48.764;9.176;2024-03-23T01:12:18;14.30;;;4.50;;
549;SDS011;20066;48.764;9.176;2024-03-23T01:14:44;9.50;;;4.00;;
549;SDS011;20066;48.764;9.176;2024-03-23T01:17:11;7.70;;;4.17;;
549;SDS011;20066;48.764;9.176;2024-03-23T01:19:37;8.20;;;4.13;;
549;SDS011;20066;48.764;9.176;2024-03-23T01:22:04;8.37;;;4.23;;
549;SDS011;20066;48.764;9.176;2024-03-23T01:24:30;6.00;;;3.50;;
549;SDS011;20066;48.764;9.176;2024-03-23T01:26:57;9.97;;;3.83;;
549;SDS011;20066;48.764;9.176;2024-03-23T01:29:23;6.13;;;3.20;;
549;SDS011;20066;48.764;9.176;2024-03-23T01:31:50;9.27;;;4.40;;
549;SDS011;20066;48.764;9.176;2024-03-23T01:34:16;9.30;;;3.60;;
549;SDS011;20066;48.764;9.176;2024-03-23T01:36:44;10.23;;;4.00;;
549;SDS011;20066;48.764;9.176;2024-03-23T01:39:11;7.23;;;3.93;;
549;SDS011;20066;48.764;9.176;2024-03-23T01:41:39;6.43;;;3.67;;
549;SDS011;20066;48.764;9.176;2024-03-23T01:44:07;15.03;;;4.30;;
549;SDS011;20066;48.764;9.176;2024-03-23T01:46:37;5.70;;;3.70;;
549;SDS011;20066;48.764;9.176;2024-03-23T01:49:04;8.70;;;3.17;;
549;SDS011;20066;48.764;9.176;2024-03-23T01:51:32;6.33;;;3.20;;
549;SDS011;20066;48.764;9.176;2024-03-23T01:53:59;7.33;;;3.60;;
549;SDS011;20066;48.764;9.176;2024-03-23T01:56:32;6.07;;;3.53;;
549;SDS011;20066;48.764;9.176;2024-03-23T01:59:03;7.23;;;3.80;;
549;SDS011;20066;48.764;9.176;2024-03-23T02:01:31;6.00;;;2.90;;
549;SDS011;20066;48.764;9.176;2024-03-23T02:03:58;5.30;;;3.23;;
549;SDS011;20066;48.764;9.176;2024-03-23T02:06:25;5.77;;;3.10;;
549;SDS011;20066;48.764;9.176;2024-03-23T02:08:51;4.77;;;2.80;;
549;SDS011;20066;48.764;9.176;2024-03-23T02:11:18;6.00;;;3.33;;
549;SDS011;20066;48.764;9.176;2024-03-23T02:13:43;4.87;;;3.23;;
549;SDS011;20066;48.764;9.176;2024-03-23T02:16:10;5.67;;;3.73;;
549;SDS011;20066;48.764;9.176;2024-03-23T02:18:36;5.90;;;3.07;;
549;SDS011;20066;48.764;9.176;2024-03-23T02:21:03;8.03;;;3.70;;
549;SDS011;20066;48.764;9.176;2024-03-23T02:23:29;7.33;;;3.23;;
549;SDS011;20066;48.764;9.176;2024-03-23T02:25:55;6.13;;;2.80;;
549;SDS011;20066;48.764;9.176;2024-03-23T02:28:21;7.33;;;3.30;;
549;SDS011;20066;48.764;9.176;2024-03-23T02:30:49;6.30;;;3.40;;
549;SDS011;20066;48.764;9.176;2024-03-23T02:33:15;9.57;;;3.87;;
549;SDS011;20066;48.764;9.176;2024-03-23T02:35:45;7.07;;;3.30;;
549;SDS011;20066;48.764;9.176;2024-03-23T02:38:12;6.50;;;3.37;;
549;SDS011;20066;48.764;9.176;2024-03-23T02:40:39;6.20;;;3.17;;
549;SDS011;20066;48.764;9.176;2024-03-23T02:43:05;9.30;;;3.60;;
549;SDS011;20066;48.764;9.176;2024-03-23T02:45:32;5.90;;;3.70;;
549;SDS011;20066;48.764;9.176;2024-03-23T02:47:58;5.73;;;3.20;;
549;SDS011;20066;48.764;9.176;2024-03-23T02:50:24;5.43;;;3.20;;
549;SDS011;20066;48.764;9.176;2024-03-23T02:52:51;6.70;;;3.70;;
549;SDS011;20066;48.764;9.176;2024-03-23T02:55:17;6.87;;;3.30;;
549;SDS011;20066;48.764;9.176;2024-03-23T02:57:44;13.90;;;3.60;;
549;SDS011;20066;48.764;9.176;2024-03-23T03:00:09;4.60;;;2.90;;
549;SDS011;20066;48.764;9.176;2024-03-23T03:02:38;7.30;;;3.30;;
549;SDS011;20066;48.764;9.176;2024-03-23T03:05:04;6.73;;;3.10;;
549;SDS011;20066;48.764;9.176;2024-03-23T03:07:32;5.63;;;3.00;;
549;SDS011;20066;48.764;9.176;2024-03-23T03:09:57;4.53;;;3.37;;
549;SDS011;20066;48.764;9.176;2024-03-23T03:12:24;4.90;;;3.10;;
549;SDS011;20066;48.764;9.176;2024-03-23T03:14:50;5.17;;;3.00;;
549;SDS011;20066;48.764;9.176;2024-03-23T03:17:17;10.90;;;3.20;;
549;SDS011;20066;48.764;9.176;2024-03-23T03:19:43;8.23;;;3.30;;
549;SDS011;20066;48.764;9.176;2024-03-23T03:22:10;5.60;;;3.00;;
549;SDS011;20066;48.764;9.176;2024-03-23T03:24:36;8.60;;;3.63;;
549;SDS011;20066;48.764;9.176;2024-03-23T03:27:03;3.93;;;2.97;;
549;SDS011;20066;48.764;9.176;2024-03-23T03:29:29;5.37;;;2.83;;
549;SDS011;20066;48.764;9.176;2024-03-23T03:32:01;5.10;;;3.10;;
549;SDS011;20066;48.764;9.176;2024-03-23T03:34:27;7.80;;;3.67;;
549;SDS011;20066;48.764;9.176;2024-03-23T03:36:54;6.47;;;3.10;;
549;SDS011;20066;48.764;9.176;2024-03-23T03:39:20;5.23;;;3.57;;
549;SDS011;20066;48.764;9.176;2024-03-23T03:41:48;6.43;;;3.50;;
549;SDS011;20066;48.764;9.176;2024-03-23T03:44:14;6.83;;;3.90;;
549;SDS011;20066;48.764;9.176;2024-03-23T03:46:41;5.27;;;3.00;;
549;SDS011;20066;48.764;9.176;2024-03-23T03:49:06;5.83;;;3.13;;
549;SDS011;20066;48.764;9.176;2024-03-23T03:51:33;5.40;;;3.13;;
549;SDS011;20066;48.764;9.176;2024-03-23T03:53:59;8.70;;;3.20;;
549;SDS011;20066;48.764;9.176;2024-03-23T03:56:26;6.70;;;3.30;;
549;SDS011;20066;48.764;9.176;2024-03-23T03:58:52;5.53;;;3.30;;
549;SDS011;20066;48.764;9.176;2024-03-23T04:01:19;10.40;;;3.80;;
549;SDS011;20066;48.764;9.176;2024-03-23T04:03:45;6.47;;;3.23;;
549;SDS011;20066;48.764;9.176;2024-03-23T04:06:15;5.13;;;3.23;;
549;SDS011;20066;48.764;9.176;2024-03-23T04:08:44;5.23;;;3.60;;
549;SDS011;20066;48.764;9.176;2024-03-23T04:11:11;8.43;;;3.60;;
549;SDS011;20066;48.764;9.176;2024-03-23T04:13:36;8.20;;;3.27;;
549;SDS011;20066;48.764;9.176;2024-03-23T04:16:03;6.90;;;3.67;;
549;SDS011;20066;48.764;9.176;2024-03-23T04:18:29;4.70;;;3.20;;
549;SDS011;20066;48.764;9.176;2024-03-23T04:20:56;5.57;;;3.60;;
549;SDS011;20066;48.764;9.176;2024-03-23T04:23:22;7.77;;;4.00;;
549;SDS011;20066;48.764;9.176;2024-03-23T04:25:49;8.60;;;3.60;;
549;SDS011;20066;48.764;9.176;2024-03-23T04:28:15;8.47;;;3.43;;
549;SDS011;20066;48.764;9.176;2024-03-23T04:30:41;6.90;;;3.80;;
549;SDS011;20066;48.764;9.176;2024-03-23T04:33:07;6.37;;;3.07;;
549;SDS011;20066;48.764;9.176;2024-03-23T04:35:34;4.93;;;2.97;;
549;SDS011;20066;48.764;9.176;2024-03-23T04:37:59;6.50;;;3.40;;
549;SDS011;20066;48.764;9.176;2024-03-23T04:40:26;6.00;;;3.13;;
549;SDS011;20066;48.764;9.176;2024-03-23T04:42:53;6.20;;;3.20;;
549;SDS011;20066;48.764;9.176;2024-03-23T04:45:20;9.60;;;3.40;;
549;SDS011;20066;48.764;9.176;2024-03-23T04:47:47;6.00;;;2.90;;
549;SDS011;20066;48.764;9.176;2024-03-23T04:50:14;6.37;;;3.30;;
549;SDS011;20066;48.764;9.176;2024-03-23T04:52:40;7.47;;;3.73;;
549;SDS011;20066;48.764;9.176;2024-03-23T04:55:07;7.20;;;3.93;;
549;SDS011;20066;48.764;9.176;2024-03-23T04:57:33;7.00;;;3.70;;
549;SDS011;20066;48.764;9.176;2024-03-23T05:00:00;7.17;;;3.80;;
549;SDS011;20066;48.764;9.176;2024-03-23T05:02:26;10.63;;;4.83;;
549;SDS011;20066;48.764;9.176;2024-03-23T05:04:53;11.40;;;5.30;;
549;SDS011;20066;48.764;9.176;2024-03-23T05:07:22;10.17;;;5.40;;
549;SDS011;20066;48.764;9.176;2024-03-23T05:09:51;22.33;;;6.13;;
549;SDS011;20066;48.764;9.176;2024-03-23T05:12:19;20.90;;;6.47;;
549;SDS011;20066;48.764;9.176;2024-03-23T05:14:46;24.17;;;7.20;;
549;SDS011;20066;48.764;9.176;2024-03-23T05:17:16;25.70;;;9.10;;
549;SDS011;20066;48.764;9.176;2024-03-23T05:19:47;25.83;;;9.70;;
549;SDS011;20066;48.764;9.176;2024-03-23T05:22:15;22.23;;;9.00;;
549;SDS011;20066;48.764;9.176;2024-03-23T05:24:45;26.37;;;10.57;;
549;SDS011;20066;48.764;9.176;2024-03-23T05:27:12;23.90;;;9.97;;
549;SDS011;20066;48.764;9.176;2024-03-23T05:29:39;21.57;;;10.47;;
549;SDS011;20066;48.764;9.176;2024-03-23T05:32:05;24.37;;;10.43;;
549;SDS011;20066;48.764;9.176;2024-03-23T05:34:34;23.23;;;10.37;;
549;SDS011;20066;48.764;9.176;2024-03-23T05:37:00;24.53;;;11.83;;
549;SDS011;20066;48.764;9.176;2024-03-23T05:39:28;22.57;;;11.70;;
549;SDS011;20066;48.764;9.176;2024-03-23T05:41:56;22.27;;;11.93;;
549;SDS011;20066;48.764;9.176;2024-03-23T05:44:25;25.30;;;11.57;;
549;SDS011;20066;48.764;9.176;2024-03-23T05:46:52;20.90;;;11.00;;
549;SDS011;20066;48.764;9.176;2024-03-23T05:49:20;18.20;;;10.80;;
549;SDS011;20066;48.764;9.176;2024-03-23T05:51:47;22.40;;;12.50;;
549;SDS011;20066;48.764;9.176;2024-03-23T05:54:15;19.07;;;10.70;;
549;SDS011;20066;48.764;9.176;2024-03-23T05:56:41;20.10;;;11.83;;
549;SDS011;20066;48.764;9.176;2024-03-23T05:59:14;18.10;;;9.95;;
549;SDS011;20066;48.764;9.176;2024-03-23T06:01:40;20.90;;;8.80;;
549;SDS011;20066;48.764;9.176;2024-03-23T06:04:24;14.02;;;7.75;;
549;SDS011;20066;48.764;9.176;2024-03-23T06:06:56;12.80;;;6.90;;
549;SDS011;20066;48.764;9.176;2024-03-23T06:09:23;17.00;;;7.43;;
549;SDS011;20066;48.764;9.176;2024-03-23T06:11:59;19.92;;;7.20;;
549;SDS011;20066;48.764;9.176;2024-03-23T06:14:30;10.27;;;5.80;;
549;SDS011;20066;48.764;9.176;2024-03-23T06:17:03;11.30;;;5.72;;
549;SDS011;20066;48.764;9.176;2024-03-23T06:19:35;10.60;;;6.07;;
549;SDS011;20066;48.764;9.176;2024-03-23T06:22:05;12.43;;;6.10;;
549;SDS011;20066;48.764;9.176;2024-03-23T06:24:47;10.38;;;5.50;;
549;SDS011;20066;48.764;9.176;2024-03-23T06:27:13;8.37;;;4.23;;
549;SDS011;20066;48.764;9.176;2024-03-23T06:29:40;6.45;;;3.72;;
549;SDS011;20066;48.764;9.176;2024-03-23T06:32:08;8.93;;;4.32;;
549;SDS011;20066;48.764;9.176;2024-03-23T06:34:34;3.17;;;2.15;;
549;SDS011;20066;48.764;9.176;2024-03-23T06:37:02;6.00;;;3.17;;
549;SDS011;20066;48.764;9.176;2024-03-23T06:39:30;6.30;;;2.60;;
549;SDS011;20066;48.764;9.176;2024-03-23T06:42:12;3.00;;;2.00;;
549;SDS011;20066;48.764;9.176;2024-03-23T06:44:40;3.58;;;2.05;;
549;SDS011;20066;48.764;9.176;2024-03-23T06:47:12;5.30;;;2.00;;
549;SDS011;20066;48.764;9.176;2024-03-23T06:49:51;5.43;;;1.75;;
549;SDS011;20066;48.764;9.176;2024-03-23T06:52:17;1.95;;;1.42;;
549;SDS011;20066;48.764;9.176;2024-03-23T06:54:46;1.55;;;1.25;;
549;SDS011;20066;48.764;9.176;2024-03-23T06:57:12;1.57;;;1.17;;
549;SDS011;20066;48.764;9.176;2024-03-23T06:59:39;5.53;;;1.10;;
549;SDS011;20066;48.764;9.176;2024-03-23T07:02:05;1.33;;;1.00;;
549;SDS011;20066;48.764;9.176;2024-03-23T07:04:34;1.40;;;1.20;;
549;SDS011;20066;48.764;9.176;2024-03-23T07:07:00;1.48;;;1.20;;
549;SDS011;20066;48.764;9.176;2024-03-23T07:09:28;1.90;;;1.40;;
549;SDS011;20066;48.764;9.176;2024-03-23T07:11:54;2.25;;;1.40;;
549;SDS011;20066;48.764;9.176;2024-03-23T07:14:23;1.50;;;1.23;;
549;SDS011;20066;48.764;9.176;2024-03-23T07:16:49;4.72;;;1.40;;
549;SDS011;20066;48.764;9.176;2024-03-23T07:19:17;2.40;;;1.40;;
549;SDS011;20066;48.764;9.176;2024-03-23T07:21:44;1.23;;;1.05;;
549;SDS011;20066;48.764;9.176;2024-03-23T07:24:13;1.45;;;1.13;;
549;SDS011;20066;48.764;9.176;2024-03-23T07:26:39;1.40;;;1.00;;
549;SDS011;20066;48.764;9.176;2024-03-23T07:29:06;1.00;;;0.80;;
549;SDS011;20066;48.764;9.176;2024-03-23T07:31:32;1.30;;;0.95;;
549;SDS011;20066;48.764;9.176;2024-03-23T07:34:00;1.58;;;0.85;;
549;SDS011;20066;48.764;9.176;2024-03-23T07:36:25;10.33;;;1.10;;
549;SDS011;20066;48.764;9.176;2024-03-23T07:38:53;1.35;;;1.08;;
549;SDS011;20066;48.764;9.176;2024-03-23T07:41:20;1.93;;;1.10;;
549;SDS011;20066;48.764;9.176;2024-03-23T07:43:47;1.33;;;1.10;;
549;SDS011;20066;48.764;9.176;2024-03-23T07:46:14;1.50;;;1.00;;
549;SDS011;20066;48.764;9.176;2024-03-23T07:48:42;1.13;;;0.90;;
549;SDS011;20066;48.764;9.176;2024-03-23T07:51:09;1.25;;;0.90;;
549;SDS011;20066;48.764;9.176;2024-03-23T07:53:37;1.25;;;0.90;;
549;SDS011;20066;48.764;9.176;2024-03-23T07:58:30;1.20;;;0.90;;
549;SDS011;20066;48.764;9.176;2024-03-23T08:00:56;1.90;;;1.37;;
549;SDS011;20066;48.764;9.176;2024-03-23T08:03:29;2.50;;;1.00;;
549;SDS011;20066;48.764;9.176;2024-03-23T08:05:55;2.50;;;1.27;;
549;SDS011;20066;48.764;9.176;2024-03-23T08:08:22;3.25;;;1.60;;
549;SDS011;20066;48.764;9.176;2024-03-23T08:10:51;2.80;;;1.47;;
549;SDS011;20066;48.764;9.176;2024-03-23T08:13:19;3.40;;;1.30;;
549;SDS011;20066;48.764;9.176;2024-03-23T08:15:45;3.45;;;1.88;;
549;SDS011;20066;48.764;9.176;2024-03-23T08:18:12;2.90;;;1.17;;
549;SDS011;20066;48.764;9.176;2024-03-23T08:20:38;3.20;;;1.30;;
549;SDS011;20066;48.764;9.176;2024-03-23T08:23:06;2.63;;;1.05;;
549;SDS011;20066;48.764;9.176;2024-03-23T08:25:32;3.08;;;1.30;;
549;SDS011;20066;48.764;9.176;2024-03-23T08:27:59;2.65;;;1.30;;
549;SDS011;20066;48.764;9.176;2024-03-23T08:30:26;2.33;;;1.10;;
549;SDS011;20066;48.764;9.176;2024-03-23T08:32:52;2.78;;;1.45;;
549;SDS011;20066;48.764;9.176;2024-03-23T08:35:18;3.30;;;1.40;;
549;SDS011;20066;48.764;9.176;2024-03-23T08:37:45;3.30;;;1.67;;
549;SDS011;20066;48.764;9.176;2024-03-23T08:40:12;2.70;;;1.20;;
549;SDS011;20066;48.764;9.176;2024-03-23T08:42:38;2.83;;;1.40;;
549;SDS011;20066;48.764;9.176;2024-03-23T08:45:04;2.40;;;1.20;;
549;SDS011;20066;48.764;9.176;2024-03-23T08:47:36;4.07;;;1.70;;
549;SDS011;20066;48.764;9.176;2024-03-23T08:50:01;3.40;;;1.60;;
549;SDS011;20066;48.764;9.176;2024-03-23T08:52:29;4.03;;;1.40;;
549;SDS011;20066;48.764;9.176;2024-03-23T08:54:55;2.80;;;1.30;;
549;SDS011;20066;48.764;9.176;2024-03-23T08:57:22;3.27;;;1.70;;
549;SDS011;20066;48.764;9.176;2024-03-23T08:59:48;6.30;;;1.93;;
549;SDS011;20066;48.764;9.176;2024-03-23T09:02:15;4.47;;;1.50;;
549;SDS011;20066;48.764;9.176;2024-03-23T09:04:41;3.40;;;1.27;;
549;SDS011;20066;48.764;9.176;2024-03-23T09:07:08;6.30;;;2.40;;
549;SDS011;20066;48.764;9.176;2024-03-23T09:09:34;4.27;;;1.87;;
549;SDS011;20066;48.764;9.176;2024-03-23T09:12:01;4.70;;;1.90;;
549;SDS011;20066;48.764;9.176;2024-03-23T09:14:27;6.10;;;2.27;;
549;SDS011;20066;48.764;9.176;2024-03-23T09:16:55;4.22;;;2.20;;
549;SDS011;20066;48.764;9.176;2024-03-23T09:19:20;4.33;;;2.20;;
549;SDS011;20066;48.764;9.176;2024-03-23T09:21:47;7.95;;;2.60;;
549;SDS011;20066;48.764;9.176;2024-03-23T09:24:14;5.80;;;2.65;;
549;SDS011;20066;48.764;9.176;2024-03-23T09:26:41;6.18;;;2.40;;
549;SDS011;20066;48.764;9.176;2024-03-23T09:29:06;8.70;;;3.03;;
549;SDS011;20066;48.764;9.176;2024-03-23T09:31:33;9.02;;;3.25;;
549;SDS011;20066;48.764;9.176;2024-03-23T09:33:59;14.90;;;3.70;;
549;SDS011;20066;48.764;9.176;2024-03-23T09:36:27;6.63;;;2.70;;
549;SDS011;20066;48.764;9.176;2024-03-23T09:38:53;8.20;;;3.30;;
549;SDS011;20066;48.764;9.176;2024-03-23T09:41:20;9.70;;;3.53;;
549;SDS011;20066;48.764;9.176;2024-03-23T09:43:46;10.47;;;2.90;;
549;SDS011;20066;48.764;9.176;2024-03-23T09:46:14;10.00;;;2.70;;
549;SDS011;20066;48.764;9.176;2024-03-23T09:48:40;6.25;;;2.95;;
549;SDS011;20066;48.764;9.176;2024-03-23T09:51:09;7.55;;;3.30;;
549;SDS011;20066;48.764;9.176;2024-03-23T09:53:35;11.53;;;3.50;;
549;SDS011;20066;48.764;9.176;2024-03-23T09:56:03;7.00;;;2.53;;
549;SDS011;20066;48.764;9.176;2024-03-23T09:58:29;8.25;;;3.22;;
549;SDS011;20066;48.764;9.176;2024-03-23T10:00:57;9.33;;;3.77;;
549;SDS011;20066;48.764;9.176;2024-03-23T10:03:23;8.15;;;3.25;;
549;SDS011;20066;48.764;9.176;2024-03-23T10:06:02;9.03;;;4.20;;
549;SDS011;20066;48.764;9.176;2024-03-23T10:08:30;14.80;;;4.07;;
549;SDS011;20066;48.764;9.176;2024-03-23T10:10:58;12.13;;;4.18;;
549;SDS011;20066;48.764;9.176;2024-03-23T10:13:38;7.57;;;3.50;;
549;SDS011;20066;48.764;9.176;2024-03-23T10:16:11;8.43;;;3.60;;
549;SDS011;20066;48.764;9.176;2024-03-23T10:18:38;14.73;;;3.70;;
549;SDS011;20066;48.764;9.176;2024-03-23T10:23:35;12.90;;;3.50;;
549;SDS011;20066;48.764;9.176;2024-03-23T10:31:26;12.13;;;3.47;;
549;SDS011;20066;48.764;9.176;2024-03-23T10:33:56;9.70;;;3.77;;
549;SDS011;20066;48.764;9.176;2024-03-23T10:36:23;10.10;;;3.50;;
549;SDS011;20066;48.764;9.176;2024-03-23T10:38:51;10.27;;;3.20;;
549;SDS011;20066;48.764;9.176;2024-03-23T10:41:18;9.70;;;3.45;;
549;SDS011;20066;48.764;9.176;2024-03-23T10:43:45;12.73;;;3.78;;
549;SDS011;20066;48.764;9.176;2024-03-23T10:46:13;14.93;;;3.50;;
549;SDS011;20066;48.764;9.176;2024-03-23T10:48:39;10.60;;;3.17;;
549;SDS011;20066;48.764;9.176;2024-03-23T10:51:07;8.70;;;3.28;;
549;SDS011;20066;48.764;9.176;2024-03-23T10:53:33;9.75;;;3.47;;
549;SDS011;20066;48.764;9.176;2024-03-23T10:56:02;11.32;;;3.40;;
549;SDS011;20066;48.764;9.176;2024-03-23T10:58:32;19.05;;;3.88;;
549;SDS011;20066;48.764;9.176;2024-03-23T11:01:00;11.23;;;4.38;;
549;SDS011;20066;48.764;9.176;2024-03-23T11:03:32;9.02;;;4.20;;
549;SDS011;20066;48.764;9.176;2024-03-23T11:06:00;8.57;;;3.42;;
549;SDS011;20066;48.764;9.176;2024-03-23T11:08:29;7.35;;;2.80;;
549;SDS011;20066;48.764;9.176;2024-03-23T11:13:51;6.88;;;3.03;;
549;SDS011;20066;48.764;9.176;2024-03-23T11:18:53;7.90;;;2.65;;
549;SDS011;20066;48.764;9.176;2024-03-23T11:24:21;9.45;;;2.72;;
549;SDS011;20066;48.764;9.176;2024-03-23T11:26:48;6.25;;;2.63;;
549;SDS011;20066;48.764;9.176;2024-03-23T11:29:16;6.78;;;2.88;;
549;SDS011;20066;48.764;9.176;2024-03-23T11:31:50;5.35;;;2.30;;
549;SDS011;20066;48.764;9.176;2024-03-23T11:34:21;7.93;;;2.50;;
549;SDS011;20066;48.764;9.176;2024-03-23T11:36:48;7.63;;;2.30;;
549;SDS011;20066;48.764;9.176;2024-03-23T11:39:18;4.67;;;2.03;;
549;SDS011;20066;48.764;9.176;2024-03-23T11:41:46;7.72;;;2.20;;
549;SDS011;20066;48.764;9.176;2024-03-23T11:44:15;5.20;;;2.00;;
549;SDS011;20066;48.764;9.176;2024-03-23T11:46:44;5.07;;;1.90;;
549;SDS011;20066;48.764;9.176;2024-03-23T11:49:24;6.27;;;2.20;;
549;SDS011;20066;48.764;9.176;2024-03-23T11:51:51;7.00;;;1.87;;
549;SDS011;20066;48.764;9.176;2024-03-23T11:54:22;6.97;;;2.10;;
549;SDS011;20066;48.764;9.176;2024-03-23T11:56:59;7.03;;;1.97;;
549;SDS011;20066;48.764;9.176;2024-03-23T11:59:31;6.93;;;1.60;;
549;SDS011;20066;48.764;9.176;2024-03-23T12:02:12;8.70;;;1.90;;
549;SDS011;20066;48.764;9.176;2024-03-23T12:04:40;5.40;;;1.70;;
549;SDS011;20066;48.764;9.176;2024-03-23T12:07:12;6.30;;;1.80;;
549;SDS011;20066;48.764;9.176;2024-03-23T12:09:49;5.72;;;1.83;;
549;SDS011;20066;48.764;9.176;2024-03-23T12:12:31;7.18;;;1.80;;
549;SDS011;20066;48.764;9.176;2024-03-23T12:15:05;6.57;;;1.90;;
549;SDS011;20066;48.764;9.176;2024-03-23T12:17:33;8.40;;;2.20;;
549;SDS011;20066;48.764;9.176;2024-03-23T12:20:01;6.65;;;1.80;;
549;SDS011;20066;48.764;9.176;2024-03-23T12:22:27;5.95;;;2.10;;
549;SDS011;20066;48.764;9.176;2024-03-23T12:24:54;14.68;;;2.20;;
549;SDS011;20066;48.764;9.176;2024-03-23T12:27:20;6.33;;;2.23;;
549;SDS011;20066;48.764;9.176;2024-03-23T12:29:47;6.00;;;2.03;;
549;SDS011;20066;48.764;9.176;2024-03-23T12:32:13;7.50;;;2.47;;
549;SDS011;20066;48.764;9.176;2024-03-23T12:34:41;6.80;;;2.00;;
549;SDS011;20066;48.764;9.176;2024-03-23T12:37:07;7.77;;;2.70;;
549;SDS011;20066;48.764;9.176;2024-03-23T12:39:34;9.80;;;2.03;;
549;SDS011;20066;48.764;9.176;2024-03-23T12:42:00;9.63;;;2.23;;
549;SDS011;20066;48.764;9.176;2024-03-23T12:44:29;9.70;;;2.47;;
549;SDS011;20066;48.764;9.176;2024-03-23T12:46:55;8.93;;;2.37;;
549;SDS011;20066;48.764;9.176;2024-03-23T12:49:21;10.52;;;2.65;;
549;SDS011;20066;48.764;9.176;2024-03-23T12:51:54;7.13;;;2.53;;
549;SDS011;20066;48.764;9.176;2024-03-23T12:54:22;8.15;;;2.25;;
549;SDS011;20066;48.764;9.176;2024-03-23T12:56:49;7.03;;;2.25;;
549;SDS011;20066;48.764;9.176;2024-03-23T12:59:16;12.63;;;2.70;;
549;SDS011;20066;48.764;9.176;2024-03-23T13:01:42;10.13;;;2.83;;
549;SDS011;20066;48.764;9.176;2024-03-23T13:04:09;5.57;;;2.40;;
549;SDS011;20066;48.764;9.176;2024-03-23T13:06:36;8.87;;;2.33;;
549;SDS011;20066;48.764;9.176;2024-03-23T13:09:03;12.23;;;2.80;;
549;SDS011;20066;48.764;9.176;2024-03-23T13:11:29;13.87;;;2.80;;
549;SDS011;20066;48.764;9.176;2024-03-23T13:13:56;6.57;;;2.40;;
549;SDS011;20066;48.764;9.176;2024-03-23T13:16:22;9.80;;;2.53;;
549;SDS011;20066;48.764;9.176;2024-03-23T13:18:49;9.77;;;3.03;;
549;SDS011;20066;48.764;9.176;2024-03-23T13:21:15;8.23;;;2.43;;
549;SDS011;20066;48.764;9.176;2024-03-23T13:23:42;9.93;;;3.37;;
549;SDS011;20066;48.764;9.176;2024-03-23T13:26:11;10.73;;;2.80;;
549;SDS011;20066;48.764;9.176;2024-03-23T13:28:37;9.63;;;3.57;;
549;SDS011;20066;48.764;9.176;2024-03-23T13:31:03;11.80;;;3.13;;
549;SDS011;20066;48.764;9.176;2024-03-23T13:33:30;6.93;;;2.00;;
549;SDS011;20066;48.764;9.176;2024-03-23T13:35:57;5.50;;;1.93;;
549;SDS011;20066;48.764;9.176;2024-03-23T13:38:24;11.23;;;2.30;;
549;SDS011;20066;48.764;9.176;2024-03-23T13:40:51;8.40;;;2.40;;
549;SDS011;20066;48.764;9.176;2024-03-23T13:43:19;10.97;;;2.00;;
549;SDS011;20066;48.764;9.176;2024-03-23T13:45:48;8.23;;;1.90;;
549;SDS011;20066;48.764;9.176;2024-03-23T13:48:19;6.83;;;1.90;;
549;SDS011;20066;48.764;9.176;2024-03-23T13:50:46;9.20;;;2.60;;
549;SDS011;20066;48.764;9.176;2024-03-23T13:53:14;7.00;;;2.20;;
549;SDS011;20066;48.764;9.176;2024-03-23T13:55:46;5.30;;;1.60;;
549;SDS011;20066;48.764;9.176;2024-03-23T13:58:14;6.47;;;2.33;;
549;SDS011;20066;48.764;9.176;2024-03-23T14:00:40;5.60;;;1.83;;
549;SDS011;20066;48.764;9.176;2024-03-23T14:03:08;8.70;;;1.70;;
549;SDS011;20066;48.764;9.176;2024-03-23T14:05:34;6.03;;;1.50;;
549;SDS011;20066;48.764;9.176;2024-03-23T14:08:01;5.57;;;1.80;;
549;SDS011;20066;48.764;9.176;2024-03-23T14:10:28;8.93;;;2.00;;
549;SDS011;20066;48.764;9.176;2024-03-23T14:12:54;7.53;;;2.10;;
549;SDS011;20066;48.764;9.176;2024-03-23T14:15:20;11.17;;;2.37;;
549;SDS011;20066;48.764;9.176;2024-03-23T14:17:47;8.82;;;2.20;;
549;SDS011;20066;48.764;9.176;2024-03-23T14:20:14;5.90;;;2.10;;
549;SDS011;20066;48.764;9.176;2024-03-23T14:22:41;7.38;;;2.55;;
549;SDS011;20066;48.764;9.176;2024-03-23T14:25:07;6.93;;;2.27;;
549;SDS011;20066;48.764;9.176;2024-03-23T14:27:34;5.70;;;1.80;;
549;SDS011;20066;48.764;9.176;2024-03-23T14:30:03;6.68;;;1.60;;
549;SDS011;20066;48.764;9.176;2024-03-23T14:32:31;4.68;;;1.40;;
549;SDS011;20066;48.764;9.176;2024-03-23T14:35:00;12.73;;;1.52;;
549;SDS011;20066;48.764;9.176;2024-03-23T14:37:26;4.43;;;1.40;;
549;SDS011;20066;48.764;9.176;2024-03-23T14:39:55;8.43;;;1.80;;
549;SDS011;20066;48.764;9.176;2024-03-23T14:42:21;3.25;;;1.30;;
549;SDS011;20066;48.764;9.176;2024-03-23T14:44:49;5.75;;;1.80;;
549;SDS011;20066;48.764;9.176;2024-03-23T14:47:15;5.47;;;1.58;;
549;SDS011;20066;48.764;9.176;2024-03-23T14:49:43;5.40;;;1.40;;
549;SDS011;20066;48.764;9.176;2024-03-23T14:52:13;6.90;;;1.27;;
549;SDS011;20066;48.764;9.176;2024-03-23T14:54:40;6.20;;;1.50;;
549;SDS011;20066;48.764;9.176;2024-03-23T14:57:06;5.23;;;1.57;;
549;SDS011;20066;48.764;9.176;2024-03-23T14:59:34;8.23;;;1.60;;
549;SDS011;20066;48.764;9.176;2024-03-23T15:02:00;6.07;;;1.40;;
549;SDS011;20066;48.764;9.176;2024-03-23T15:04:27;8.15;;;1.75;;
549;SDS011;20066;48.764;9.176;2024-03-23T15:06:53;9.70;;;2.03;;
549;SDS011;20066;48.764;9.176;2024-03-23T15:09:21;7.38;;;1.27;;
549;SDS011;20066;48.764;9.176;2024-03-23T15:11:46;8.73;;;2.30;;
549;SDS011;20066;48.764;9.176;2024-03-23T15:14:13;4.70;;;1.60;;
549;SDS011;20066;48.764;9.176;2024-03-23T15:16:39;5.23;;;1.83;;
549;SDS011;20066;48.764;9.176;2024-03-23T15:19:07;7.90;;;1.92;;
549;SDS011;20066;48.764;9.176;2024-03-23T15:21:36;5.07;;;1.40;;
549;SDS011;20066;48.764;9.176;2024-03-23T15:24:03;5.47;;;1.80;;
549;SDS011;20066;48.764;9.176;2024-03-23T15:26:29;6.00;;;1.77;;
549;SDS011;20066;48.764;9.176;2024-03-23T15:28:56;5.70;;;1.60;;
549;SDS011;20066;48.764;9.176;2024-03-23T15:31:40;6.15;;;1.67;;
549;SDS011;20066;48.764;9.176;2024-03-23T15:34:06;8.10;;;2.10;;
549;SDS011;20066;48.764;9.176;2024-03-23T15:36:35;7.43;;;1.97;;
549;SDS011;20066;48.764;9.176;2024-03-23T15:39:04;5.30;;;1.27;;
549;SDS011;20066;48.764;9.176;2024-03-23T15:41:30;3.90;;;1.30;;
549;SDS011;20066;48.764;9.176;2024-03-23T15:43:59;5.65;;;1.63;;
549;SDS011;20066;48.764;9.176;2024-03-23T15:46:26;4.43;;;1.50;;
549;SDS011;20066;48.764;9.176;2024-03-23T15:48:52;10.63;;;2.27;;
549;SDS011;20066;48.764;9.176;2024-03-23T15:51:20;5.43;;;1.73;;
549;SDS011;20066;48.764;9.176;2024-03-23T15:53:45;6.50;;;1.47;;
549;SDS011;20066;48.764;9.176;2024-03-23T15:56:12;6.67;;;1.60;;
549;SDS011;20066;48.764;9.176;2024-03-23T15:58:38;4.33;;;1.67;;
549;SDS011;20066;48.764;9.176;2024-03-23T16:01:05;6.78;;;1.73;;
549;SDS011;20066;48.764;9.176;2024-03-23T16:03:34;4.07;;;1.58;;
549;SDS011;20066;48.764;9.176;2024-03-23T16:06:04;7.67;;;1.93;;
549;SDS011;20066;48.764;9.176;2024-03-23T16:08:32;5.70;;;1.63;;
549;SDS011;20066;48.764;9.176;2024-03-23T16:11:06;4.80;;;1.30;;
549;SDS011;20066;48.764;9.176;2024-03-23T16:13:33;4.20;;;1.35;;
549;SDS011;20066;48.764;9.176;2024-03-23T16:16:06;5.68;;;1.77;;
549;SDS011;20066;48.764;9.176;2024-03-23T16:18:32;4.03;;;1.50;;
549;SDS011;20066;48.764;9.176;2024-03-23T16:21:01;3.60;;;1.23;;
549;SDS011;20066;48.764;9.176;2024-03-23T16:23:28;4.47;;;1.20;;
549;SDS011;20066;48.764;9.176;2024-03-23T16:25:56;4.78;;;2.00;;
549;SDS011;20066;48.764;9.176;2024-03-23T16:28:25;9.68;;;1.95;;